Time;durP1;ratioP1;P1;durP2;ratioP2;P2;SDS_P1;SDS_P2;PMS_P1;PMS_P2;Temp;Humidity;BMP_temperature;BMP_pressure;BME280_temperature;BME280_humidity;BME280_pressure;Samples;Min_cycle;Max_cycle;Signal;HPM_P1;HPM_P2
2024/04/10 00:00:05;;;;;;;1.95;0.80;;;;;;;;;;5501585;26;20434;-50
2024/04/10 00:02:30;;;;;;;2.55;0.82;;;;;;;;;;5502731;25;19994;-49
2024/04/10 00:04:56;;;;;;;2.05;0.77;;;;;;;;;;5503472;26;20600;-53
2024/04/10 00:07:21;;;;;;;2.72;1.10;;;;;;;;;;5503183;25;20330;-52
2024/04/10 00:09:46;;;;;;;2.30;0.90;;;;;;;;;;5502517;26;20075;-51
2024/04/10 00:12:12;;;;;;;2.20;0.90;;;;;;;;;;5503092;25;20337;-51
2024/04/10 00:14:38;;;;;;;2.95;0.80;;;;;;;;;;5503143;25;19998;-50
2024/04/10 00:17:03;;;;;;;1.92;0.60;;;;;;;;;;5502645;25;20046;-49
2024/04/10 00:19:28;;;;;;;3.45;0.98;;;;;;;;;;5502943;25;19994;-51
2024/04/10 00:21:54;;;;;;;2.28;0.70;;;;;;;;;;5501180;25;20012;-53
2024/04/10 00:24:19;;;;;;;5.00;0.80;;;;;;;;;;5502850;25;19998;-53
2024/04/10 00:26:49;;;;;;;1.08;0.70;;;;;;;;;;5502648;25;20465;-50
2024/04/10 00:29:14;;;;;;;1.42;0.80;;;;;;;;;;5491277;25;19998;-53
2024/04/10 00:31:40;;;;;;;2.67;0.90;;;;;;;;;;5486868;26;20558;-49
2024/04/10 00:34:05;;;;;;;1.52;0.77;;;;;;;;;;5482503;26;20010;-49
2024/04/10 00:36:30;;;;;;;1.65;0.68;;;;;;;;;;5487007;26;20452;-51
2024/04/10 00:38:56;;;;;;;1.95;0.75;;;;;;;;;;5487275;26;20433;-50
2024/04/10 00:41:21;;;;;;;2.15;0.60;;;;;;;;;;5486372;26;20325;-52
2024/04/10 00:43:47;;;;;;;1.88;0.80;;;;;;;;;;5487238;26;20605;-51
2024/04/10 00:46:19;;;;;;;1.67;0.68;;;;;;;;;;5486658;26;20016;-50
2024/04/10 00:48:45;;;;;;;1.92;0.70;;;;;;;;;;5484918;26;20013;-51
2024/04/10 00:51:13;;;;;;;2.95;0.82;;;;;;;;;;5486857;26;20022;-51
2024/04/10 00:53:40;;;;;;;1.05;0.60;;;;;;;;;;5485268;26;19998;-49
2024/04/10 00:56:05;;;;;;;1.50;0.70;;;;;;;;;;5486362;26;20020;-51
2024/04/10 00:58:34;;;;;;;0.95;0.50;;;;;;;;;;5486276;26;20434;-53
2024/04/10 01:01:00;;;;;;;3.72;0.70;;;;;;;;;;5479282;26;19994;-51
2024/04/10 01:03:25;;;;;;;2.10;0.80;;;;;;;;;;5482674;26;19998;-50
2024/04/10 01:06:01;;;;;;;1.50;0.80;;;;;;;;;;5486048;26;19994;-53
2024/04/10 01:08:27;;;;;;;2.00;0.88;;;;;;;;;;5484896;26;20002;-50
2024/04/10 01:10:53;;;;;;;1.25;0.60;;;;;;;;;;5484877;26;20450;-51
2024/04/10 01:13:19;;;;;;;1.73;0.73;;;;;;;;;;5485925;26;20013;-49
2024/04/10 01:15:44;;;;;;;1.58;0.80;;;;;;;;;;5486724;26;20009;-50
2024/04/10 01:18:10;;;;;;;3.28;0.80;;;;;;;;;;5482636;26;19994;-55
2024/04/10 01:20:35;;;;;;;1.17;0.70;;;;;;;;;;5485910;26;20009;-53
2024/04/10 01:23:03;;;;;;;1.55;0.70;;;;;;;;;;5486370;26;19994;-52
2024/04/10 01:25:28;;;;;;;2.13;0.80;;;;;;;;;;5486777;26;19998;-50
2024/04/10 01:27:53;;;;;;;1.40;0.75;;;;;;;;;;5486154;26;20002;-50
2024/04/10 01:30:19;;;;;;;3.00;0.82;;;;;;;;;;5485924;26;20002;-53
2024/04/10 01:32:44;;;;;;;1.67;0.70;;;;;;;;;;5485713;26;20002;-52
2024/04/10 01:35:09;;;;;;;1.05;0.60;;;;;;;;;;5486378;26;19993;-49
2024/04/10 01:37:35;;;;;;;1.42;0.60;;;;;;;;;;5477187;26;19998;-53
2024/04/10 01:40:00;;;;;;;2.00;0.65;;;;;;;;;;5470382;26;19994;-52
2024/04/10 01:42:25;;;;;;;0.90;0.60;;;;;;;;;;5486380;26;20452;-49
2024/04/10 01:44:51;;;;;;;1.75;0.60;;;;;;;;;;5480601;26;19994;-53
2024/04/10 01:47:16;;;;;;;1.35;0.63;;;;;;;;;;5485863;26;20426;-49
2024/04/10 01:49:41;;;;;;;1.70;0.68;;;;;;;;;;5486371;26;20464;-49
2024/04/10 01:52:07;;;;;;;2.35;0.55;;;;;;;;;;5485612;26;20695;-49
2024/04/10 01:54:32;;;;;;;3.00;0.85;;;;;;;;;;5485964;26;19998;-52
2024/04/10 01:56:57;;;;;;;1.58;0.80;;;;;;;;;;5486042;26;19994;-49
2024/04/10 01:59:22;;;;;;;0.95;0.60;;;;;;;;;;5484931;26;20399;-53
2024/04/10 02:01:49;;;;;;;1.58;0.63;;;;;;;;;;5485043;26;20535;-51
2024/04/10 02:04:14;;;;;;;1.20;0.55;;;;;;;;;;5485670;26;20002;-49
2024/04/10 02:06:40;;;;;;;1.63;0.70;;;;;;;;;;5486026;26;20076;-54
2024/04/10 02:09:06;;;;;;;0.95;0.55;;;;;;;;;;5485063;26;20066;-53
2024/04/10 02:11:37;;;;;;;1.55;0.70;;;;;;;;;;5485902;26;20001;-50
2024/04/10 02:14:02;;;;;;;1.17;0.60;;;;;;;;;;5484224;26;20001;-52
2024/04/10 02:16:28;;;;;;;1.75;0.70;;;;;;;;;;5483752;26;20078;-53
2024/04/10 02:18:56;;;;;;;1.25;0.60;;;;;;;;;;5483813;26;20017;-49
2024/04/10 02:21:22;;;;;;;1.15;0.60;;;;;;;;;;5485415;26;20043;-52
2024/04/10 02:23:48;;;;;;;1.17;0.50;;;;;;;;;;5484947;26;20010;-49
2024/04/10 02:26:14;;;;;;;1.58;0.60;;;;;;;;;;5483755;26;20013;-55
2024/04/10 02:28:40;;;;;;;1.17;0.57;;;;;;;;;;5485607;26;20002;-52
2024/04/10 02:31:06;;;;;;;1.25;0.60;;;;;;;;;;5483357;26;20064;-49
2024/04/10 02:33:37;;;;;;;1.05;0.50;;;;;;;;;;5485080;26;20030;-49
2024/04/10 02:36:03;;;;;;;1.20;0.60;;;;;;;;;;5485325;26;20006;-53
2024/04/10 02:38:29;;;;;;;2.10;0.60;;;;;;;;;;5447303;26;20003;-53
2024/04/10 02:40:55;;;;;;;1.33;0.60;;;;;;;;;;5478801;26;20441;-48
2024/04/10 02:43:22;;;;;;;0.85;0.50;;;;;;;;;;5485260;26;20042;-53
2024/04/10 02:45:57;;;;;;;1.35;0.52;;;;;;;;;;5480778;26;20003;-51
2024/04/10 02:48:22;;;;;;;1.60;0.70;;;;;;;;;;5471050;26;20040;-50
2024/04/10 02:50:48;;;;;;;1.02;0.60;;;;;;;;;;5485094;26;20006;-51
2024/04/10 02:53:14;;;;;;;1.63;0.70;;;;;;;;;;5479879;26;19994;-54
2024/04/10 02:55:43;;;;;;;1.00;0.50;;;;;;;;;;5484761;26;20013;-52
2024/04/10 02:58:10;;;;;;;1.30;0.60;;;;;;;;;;5482225;26;20002;-49
2024/04/10 03:00:43;;;;;;;1.40;0.63;;;;;;;;;;5483424;26;20001;-52
2024/04/10 03:03:08;;;;;;;1.13;0.43;;;;;;;;;;5476967;26;20039;-50
2024/04/10 03:05:34;;;;;;;1.08;0.60;;;;;;;;;;5481167;26;20002;-52
2024/04/10 03:07:59;;;;;;;1.58;0.70;;;;;;;;;;5484799;26;20002;-51
2024/04/10 03:10:24;;;;;;;1.27;0.60;;;;;;;;;;5484816;26;19998;-54
2024/04/10 03:12:50;;;;;;;1.30;0.70;;;;;;;;;;5482074;26;20009;-53
2024/04/10 03:15:16;;;;;;;1.92;0.85;;;;;;;;;;5484634;26;20021;-50
2024/04/10 03:17:42;;;;;;;0.80;0.50;;;;;;;;;;5484535;26;20587;-49
2024/04/10 03:20:08;;;;;;;1.75;0.80;;;;;;;;;;5484054;26;20017;-49
2024/04/10 03:22:34;;;;;;;1.38;0.70;;;;;;;;;;5484534;26;20506;-52
2024/04/10 03:24:59;;;;;;;1.05;0.60;;;;;;;;;;5484873;26;20013;-49
2024/04/10 03:27:25;;;;;;;1.05;0.50;;;;;;;;;;5482179;26;19998;-53
2024/04/10 03:29:50;;;;;;;1.80;0.52;;;;;;;;;;5482614;26;20008;-53
2024/04/10 03:32:15;;;;;;;1.85;0.45;;;;;;;;;;5484791;26;20002;-49
2024/04/10 03:34:41;;;;;;;0.90;0.47;;;;;;;;;;5484176;26;20016;-54
2024/04/10 03:37:06;;;;;;;0.82;0.50;;;;;;;;;;5483993;26;20018;-52
2024/04/10 03:39:31;;;;;;;1.63;0.77;;;;;;;;;;5484509;26;19998;-49
2024/04/10 03:41:57;;;;;;;1.73;0.60;;;;;;;;;;5484327;26;19998;-52
2024/04/10 03:44:22;;;;;;;0.47;0.40;;;;;;;;;;5483558;26;20017;-51
2024/04/10 03:46:48;;;;;;;0.60;0.35;;;;;;;;;;5484089;26;20006;-51
2024/04/10 03:49:13;;;;;;;1.42;0.70;;;;;;;;;;5484610;26;20379;-50
2024/04/10 03:51:38;;;;;;;1.52;0.50;;;;;;;;;;5478588;26;20095;-51
2024/04/10 03:54:04;;;;;;;0.47;0.40;;;;;;;;;;5484045;26;20040;-51
2024/04/10 03:56:30;;;;;;;1.05;0.52;;;;;;;;;;5483205;26;20002;-52
2024/04/10 03:58:55;;;;;;;1.00;0.60;;;;;;;;;;5482709;26;20043;-49
2024/04/10 04:01:20;;;;;;;1.13;0.60;;;;;;;;;;5483659;26;20074;-49
2024/04/10 04:03:46;;;;;;;1.23;0.50;;;;;;;;;;5484972;26;19998;-52
2024/04/10 04:06:11;;;;;;;1.83;0.70;;;;;;;;;;5487478;26;20002;-51
2024/04/10 04:08:36;;;;;;;1.10;0.60;;;;;;;;;;5487118;26;19998;-49
2024/04/10 04:11:04;;;;;;;1.50;0.60;;;;;;;;;;5487689;26;20050;-53
2024/04/10 04:13:30;;;;;;;1.80;0.50;;;;;;;;;;5487452;26;20002;-50
2024/04/10 04:15:55;;;;;;;0.90;0.50;;;;;;;;;;5486940;26;19998;-51
2024/04/10 04:18:20;;;;;;;1.83;0.70;;;;;;;;;;5487157;26;20333;-49
2024/04/10 04:20:46;;;;;;;1.17;0.60;;;;;;;;;;5487480;26;20025;-52
2024/04/10 04:23:11;;;;;;;0.57;0.50;;;;;;;;;;5486619;26;20045;-50
2024/04/10 04:25:36;;;;;;;2.17;0.60;;;;;;;;;;5487251;26;20002;-48
2024/04/10 04:28:02;;;;;;;1.02;0.55;;;;;;;;;;5487612;26;20581;-52
2024/04/10 04:30:27;;;;;;;0.82;0.50;;;;;;;;;;5486842;26;20038;-49
2024/04/10 04:32:54;;;;;;;1.35;0.60;;;;;;;;;;5486896;26;20073;-49
2024/04/10 04:35:20;;;;;;;1.30;0.60;;;;;;;;;;5486798;26;20013;-52
2024/04/10 04:37:53;;;;;;;0.90;0.43;;;;;;;;;;5486703;26;20391;-50
2024/04/10 04:40:18;;;;;;;;;;;;;;;;;;5482442;26;19994;-51
2024/04/10 04:42:44;;;;;;;1.52;0.50;;;;;;;;;;5487242;26;19993;-53
2024/04/10 04:45:09;;;;;;;1.17;0.55;;;;;;;;;;5487106;26;20070;-52
2024/04/10 04:47:34;;;;;;;1.02;0.55;;;;;;;;;;5486284;26;19995;-48
2024/04/10 04:50:00;;;;;;;1.05;0.55;;;;;;;;;;5486671;26;19994;-53
2024/04/10 04:52:25;;;;;;;1.17;0.63;;;;;;;;;;5486599;26;19998;-49
2024/04/10 04:54:51;;;;;;;1.55;0.65;;;;;;;;;;5486219;26;20005;-53
2024/04/10 04:57:16;;;;;;;0.55;0.40;;;;;;;;;;5486620;26;19990;-51
2024/04/10 04:59:42;;;;;;;2.15;0.60;;;;;;;;;;5486796;26;20093;-50
2024/04/10 05:02:08;;;;;;;0.63;0.50;;;;;;;;;;5486850;26;20005;-48
2024/04/10 05:07:17;;;;;;;1.15;0.60;;;;;;;;;;5486588;26;20013;-49
2024/04/10 05:09:49;;;;;;;0.93;0.50;;;;;;;;;;5486297;26;20329;-49
2024/04/10 05:12:14;;;;;;;1.02;0.40;;;;;;;;;;5479227;26;20014;-51
2024/04/10 05:14:39;;;;;;;1.42;0.65;;;;;;;;;;5484022;26;20322;-59
2024/04/10 05:17:05;;;;;;;0.65;0.45;;;;;;;;;;5479703;26;20465;-60
2024/04/10 05:19:31;;;;;;;1.15;0.60;;;;;;;;;;5485272;26;20006;-60
2024/04/10 05:21:56;;;;;;;1.10;0.40;;;;;;;;;;5485001;26;20326;-60
2024/04/10 05:24:23;;;;;;;1.55;0.40;;;;;;;;;;5486283;26;20009;-58
2024/04/10 05:26:49;;;;;;;2.00;0.60;;;;;;;;;;5485585;26;20013;-57
2024/04/10 05:29:14;;;;;;;0.50;0.30;;;;;;;;;;5486126;26;19996;-58
2024/04/10 05:31:40;;;;;;;1.13;0.60;;;;;;;;;;5485205;26;20657;-60
2024/04/10 05:34:05;;;;;;;2.40;0.63;;;;;;;;;;5485811;26;20010;-58
2024/04/10 05:36:31;;;;;;;1.25;0.50;;;;;;;;;;5485773;26;20014;-60
2024/04/10 05:39:00;;;;;;;1.38;0.60;;;;;;;;;;5486055;26;20018;-60
2024/04/10 05:41:25;;;;;;;1.42;0.75;;;;;;;;;;5486001;26;20013;-61
2024/04/10 05:43:50;;;;;;;1.52;0.60;;;;;;;;;;5474639;26;20006;-58
2024/04/10 05:46:16;;;;;;;2.35;0.70;;;;;;;;;;5486099;26;20070;-61
2024/04/10 05:48:41;;;;;;;0.88;0.43;;;;;;;;;;5486126;26;20025;-60
2024/04/10 05:51:08;;;;;;;2.53;0.70;;;;;;;;;;5485583;26;20002;-61
2024/04/10 05:53:33;;;;;;;1.98;0.70;;;;;;;;;;5482793;26;19994;-60
2024/04/10 05:56:05;;;;;;;1.50;0.60;;;;;;;;;;5486041;26;20012;-60
2024/04/10 05:58:31;;;;;;;0.98;0.60;;;;;;;;;;5484926;26;20009;-58
2024/04/10 06:00:57;;;;;;;1.73;0.73;;;;;;;;;;5486093;26;19998;-56
2024/04/10 06:03:22;;;;;;;1.65;0.57;;;;;;;;;;5485845;26;20017;-61
2024/04/10 06:05:48;;;;;;;1.33;0.60;;;;;;;;;;5485639;26;20034;-58
2024/04/10 06:08:13;;;;;;;3.83;0.73;;;;;;;;;;5485440;26;20021;-59
2024/04/10 06:10:38;;;;;;;1.30;0.70;;;;;;;;;;5485755;26;19998;-57
2024/04/10 06:13:04;;;;;;;1.35;0.75;;;;;;;;;;5485722;26;20693;-59
2024/04/10 06:15:30;;;;;;;2.55;0.88;;;;;;;;;;5485145;26;20016;-60
2024/04/10 06:17:55;;;;;;;2.05;0.70;;;;;;;;;;5485579;26;20038;-58
2024/04/10 06:20:21;;;;;;;1.85;0.80;;;;;;;;;;5485500;26;20002;-59
2024/04/10 06:22:46;;;;;;;3.13;0.93;;;;;;;;;;5484451;26;20804;-56
2024/04/10 06:25:12;;;;;;;2.13;0.80;;;;;;;;;;5483880;26;20017;-58
2024/04/10 06:27:37;;;;;;;4.82;0.88;;;;;;;;;;5483936;26;20079;-58
2024/04/10 06:30:03;;;;;;;4.30;0.63;;;;;;;;;;5484536;26;19998;-49
2024/04/10 06:32:28;;;;;;;2.72;0.80;;;;;;;;;;5484903;26;20046;-48
2024/04/10 06:34:54;;;;;;;3.38;0.90;;;;;;;;;;5485261;26;20070;-52
2024/04/10 06:37:19;;;;;;;1.60;0.60;;;;;;;;;;5484896;26;20319;-52
2024/04/10 06:39:46;;;;;;;1.77;0.70;;;;;;;;;;5484989;26;20006;-47
2024/04/10 06:42:11;;;;;;;5.97;0.88;;;;;;;;;;5485349;26;20013;-52
2024/04/10 06:44:36;;;;;;;1.77;0.70;;;;;;;;;;5485268;26;20034;-48
2024/04/10 06:47:02;;;;;;;5.03;0.80;;;;;;;;;;5484364;26;20017;-47
2024/04/10 06:49:28;;;;;;;2.78;0.90;;;;;;;;;;5484917;26;19998;-51
2024/04/10 06:51:54;;;;;;;2.15;0.70;;;;;;;;;;5485463;26;20017;-49
2024/04/10 06:54:21;;;;;;;2.17;0.80;;;;;;;;;;5484187;26;20613;-52
2024/04/10 06:56:46;;;;;;;1.77;0.70;;;;;;;;;;5468272;26;19998;-54
2024/04/10 06:59:13;;;;;;;1.58;0.70;;;;;;;;;;5484773;26;20008;-51
2024/04/10 07:01:38;;;;;;;2.25;0.70;;;;;;;;;;5484260;26;20370;-60
2024/04/10 07:04:04;;;;;;;1.40;0.65;;;;;;;;;;5484756;26;20013;-56
2024/04/10 07:06:30;;;;;;;2.50;0.75;;;;;;;;;;5484871;26;19994;-59
2024/04/10 07:08:56;;;;;;;2.03;0.80;;;;;;;;;;5484467;26;20067;-55
2024/04/10 07:11:21;;;;;;;3.05;0.80;;;;;;;;;;5483585;26;20006;-59
2024/04/10 07:13:47;;;;;;;6.68;0.80;;;;;;;;;;5484175;26;19998;-50
2024/04/10 07:16:12;;;;;;;1.42;0.60;;;;;;;;;;5484413;26;20002;-54
2024/04/10 07:18:38;;;;;;;1.83;0.70;;;;;;;;;;5483463;26;20442;-51
2024/04/10 07:21:07;;;;;;;2.40;0.70;;;;;;;;;;5484321;26;20528;-53
2024/04/10 07:23:35;;;;;;;2.13;0.75;;;;;;;;;;5484466;26;19998;-50
2024/04/10 07:26:08;;;;;;;2.00;0.70;;;;;;;;;;5475720;26;19998;-50
2024/04/10 07:28:34;;;;;;;2.85;0.70;;;;;;;;;;5479098;26;20009;-51
2024/04/10 07:30:59;;;;;;;3.22;0.90;;;;;;;;;;5484455;26;19998;-52
2024/04/10 07:33:24;;;;;;;1.83;0.70;;;;;;;;;;5483457;26;19999;-50
2024/04/10 07:35:50;;;;;;;3.47;0.90;;;;;;;;;;5484510;26;20071;-60
2024/04/10 07:38:16;;;;;;;2.78;0.75;;;;;;;;;;5485624;26;20006;-61
2024/04/10 07:40:51;;;;;;;1.80;0.60;;;;;;;;;;5484241;26;20313;-59
2024/04/10 07:43:17;;;;;;;2.78;1.27;;;;;;;;;;5487604;26;20008;-60
2024/04/10 07:45:42;;;;;;;1.67;0.60;;;;;;;;;;5487849;26;20002;-59
2024/04/10 07:48:07;;;;;;;4.30;1.05;;;;;;;;;;5488049;26;20024;-52
2024/04/10 07:50:33;;;;;;;2.00;0.60;;;;;;;;;;5487421;26;20016;-49
2024/04/10 07:52:58;;;;;;;1.92;0.80;;;;;;;;;;5487824;26;20009;-50
2024/04/10 07:55:24;;;;;;;5.05;1.38;;;;;;;;;;5487925;26;19998;-50
2024/04/10 07:57:49;;;;;;;1.52;0.50;;;;;;;;;;5486918;26;20056;-55
2024/04/10 08:00:14;;;;;;;2.05;0.73;;;;;;;;;;5487836;26;20015;-51
2024/04/10 08:02:40;;;;;;;1.90;0.75;;;;;;;;;;5487512;26;19998;-51
2024/04/10 08:05:09;;;;;;;1.90;0.70;;;;;;;;;;5487313;26;19998;-51
2024/04/10 08:07:36;;;;;;;1.40;0.52;;;;;;;;;;5487435;26;21394;-52
2024/04/10 08:10:01;;;;;;;2.47;0.90;;;;;;;;;;5487626;26;19998;-53
2024/04/10 08:12:26;;;;;;;1.60;0.73;;;;;;;;;;5487146;26;20013;-51
2024/04/10 08:14:51;;;;;;;1.17;0.50;;;;;;;;;;5487031;26;20013;-49
2024/04/10 08:17:17;;;;;;;1.73;0.70;;;;;;;;;;5487147;26;20039;-52
2024/04/10 08:19:46;;;;;;;1.92;0.60;;;;;;;;;;5487477;26;20002;-51
2024/04/10 08:22:11;;;;;;;5.38;1.13;;;;;;;;;;5485013;26;20002;-52
2024/04/10 08:24:36;;;;;;;2.72;0.80;;;;;;;;;;5487418;26;20012;-48
2024/04/10 08:27:02;;;;;;;1.40;0.65;;;;;;;;;;5487421;26;20017;-53
2024/04/10 08:29:28;;;;;;;1.42;0.70;;;;;;;;;;5482894;26;19998;-50
2024/04/10 08:31:54;;;;;;;2.47;0.90;;;;;;;;;;5487379;26;20593;-50
2024/04/10 08:34:19;;;;;;;1.98;0.82;;;;;;;;;;5487104;26;20337;-51
2024/04/10 08:36:45;;;;;;;3.33;0.88;;;;;;;;;;5485667;26;20005;-58
2024/04/10 08:39:10;;;;;;;1.70;0.77;;;;;;;;;;5486996;26;20016;-60
2024/04/10 08:41:38;;;;;;;2.55;0.80;;;;;;;;;;5487139;26;20003;-60
2024/04/10 08:44:06;;;;;;;2.30;0.85;;;;;;;;;;5487003;26;20006;-59
2024/04/10 08:46:34;;;;;;;2.28;0.75;;;;;;;;;;5483520;26;20006;-57
2024/04/10 08:49:01;;;;;;;1.45;0.70;;;;;;;;;;5486666;26;20002;-54
2024/04/10 08:51:27;;;;;;;6.47;1.00;;;;;;;;;;5484773;26;19998;-49
2024/04/10 08:53:55;;;;;;;2.05;1.02;;;;;;;;;;5478645;26;20017;-51
2024/04/10 08:56:20;;;;;;;1.75;0.90;;;;;;;;;;5473248;26;20002;-52
2024/04/10 08:58:45;;;;;;;2.40;0.77;;;;;;;;;;5486937;26;20013;-51
2024/04/10 09:01:27;;;;;;;2.25;0.73;;;;;;;;;;5486053;26;19998;-58
2024/04/10 09:03:52;;;;;;;2.70;0.70;;;;;;;;;;5485290;26;19998;-60
2024/04/10 09:06:19;;;;;;;2.33;1.02;;;;;;;;;;5484767;26;19998;-59
2024/04/10 09:08:55;;;;;;;1.35;0.55;;;;;;;;;;5484416;26;19998;-60
2024/04/10 09:11:23;;;;;;;1.42;0.60;;;;;;;;;;5471893;26;19998;-58
2024/04/10 09:14:09;;;;;;;1.30;0.60;;;;;;;;;;5478686;26;20070;-57
2024/04/10 09:16:35;;;;;;;1.10;0.60;;;;;;;;;;5482706;26;20067;-57
2024/04/10 09:19:11;;;;;;;1.63;0.65;;;;;;;;;;5485018;26;19998;-59
2024/04/10 09:21:39;;;;;;;3.80;0.90;;;;;;;;;;5485002;26;20002;-60
2024/04/10 09:24:05;;;;;;;2.13;0.90;;;;;;;;;;5481770;26;20045;-58
2024/04/10 09:26:30;;;;;;;1.83;0.60;;;;;;;;;;5484796;26;20013;-50
2024/04/10 09:29:08;;;;;;;2.35;0.90;;;;;;;;;;5482497;26;20013;-51
2024/04/10 09:31:33;;;;;;;3.72;0.85;;;;;;;;;;5483273;26;20067;-52
2024/04/10 09:33:59;;;;;;;1.48;0.70;;;;;;;;;;5484323;26;20010;-50
2024/04/10 09:36:26;;;;;;;1.55;0.80;;;;;;;;;;5484425;26;20095;-52
2024/04/10 09:38:53;;;;;;;2.40;0.93;;;;;;;;;;5482900;26;20002;-49
2024/04/10 09:41:21;;;;;;;2.30;0.70;;;;;;;;;;5484232;26;20067;-53
2024/04/10 09:43:50;;;;;;;2.67;0.73;;;;;;;;;;5479588;26;19994;-60
2024/04/10 09:46:16;;;;;;;2.95;0.80;;;;;;;;;;5483409;26;20004;-60
2024/04/10 09:48:46;;;;;;;1.90;0.75;;;;;;;;;;5481785;26;19994;-58
2024/04/10 09:51:17;;;;;;;1.77;0.80;;;;;;;;;;5484928;26;20008;-60
2024/04/10 09:53:43;;;;;;;4.15;0.60;;;;;;;;;;5477125;26;20306;-60
2024/04/10 09:56:09;;;;;;;2.30;0.80;;;;;;;;;;5482649;26;20803;-57
2024/04/10 09:58:35;;;;;;;1.73;0.60;;;;;;;;;;5481876;26;20009;-60
2024/04/10 10:01:02;;;;;;;1.95;0.80;;;;;;;;;;5478528;26;20489;-61
2024/04/10 10:03:27;;;;;;;1.80;0.65;;;;;;;;;;5482341;26;20066;-57
2024/04/10 10:06:01;;;;;;;1.50;0.77;;;;;;;;;;5484500;26;20406;-61
2024/04/10 10:08:26;;;;;;;4.45;0.73;;;;;;;;;;5481995;26;20485;-60
2024/04/10 10:10:54;;;;;;;1.25;0.55;;;;;;;;;;5484731;26;20005;-58
2024/04/10 10:13:34;;;;;;;1.38;0.60;;;;;;;;;;5483688;26;20012;-58
2024/04/10 10:16:02;;;;;;;1.70;0.70;;;;;;;;;;5484394;26;20008;-62
2024/04/10 10:18:28;;;;;;;2.00;0.70;;;;;;;;;;5480304;26;20039;-55
2024/04/10 10:21:07;;;;;;;2.40;1.00;;;;;;;;;;5483453;26;20032;-62
2024/04/10 10:23:37;;;;;;;3.30;1.02;;;;;;;;;;5483479;26;20719;-59
2024/04/10 10:26:03;;;;;;;2.10;0.63;;;;;;;;;;5483096;26;20030;-61
2024/04/10 10:28:31;;;;;;;3.38;0.95;;;;;;;;;;5484205;26;20010;-61
2024/04/10 10:31:11;;;;;;;1.05;0.55;;;;;;;;;;5484983;26;20830;-58
2024/04/10 10:33:37;;;;;;;1.63;0.70;;;;;;;;;;5483394;26;20038;-58
2024/04/10 10:36:03;;;;;;;1.92;0.65;;;;;;;;;;5484355;26;20380;-59
2024/04/10 10:38:28;;;;;;;2.17;0.77;;;;;;;;;;5478131;26;20002;-61
2024/04/10 10:40:53;;;;;;;4.25;0.82;;;;;;;;;;5476054;26;20013;-61
2024/04/10 10:43:18;;;;;;;2.10;0.80;;;;;;;;;;5483443;26;20330;-62
2024/04/10 10:45:49;;;;;;;1.30;0.60;;;;;;;;;;5480648;26;20429;-59
2024/04/10 10:48:17;;;;;;;2.33;0.80;;;;;;;;;;5446377;26;20357;-59
2024/04/10 10:50:43;;;;;;;1.70;0.55;;;;;;;;;;5483946;26;20013;-60
2024/04/10 10:53:11;;;;;;;1.10;0.57;;;;;;;;;;5483239;26;20604;-52
2024/04/10 10:55:37;;;;;;;1.83;0.70;;;;;;;;;;5482182;26;20570;-50
2024/04/10 10:58:03;;;;;;;1.60;0.70;;;;;;;;;;5483766;26;20006;-49
2024/04/10 11:00:33;;;;;;;2.05;0.70;;;;;;;;;;5481464;26;20465;-60
2024/04/10 11:03:10;;;;;;;2.67;0.47;;;;;;;;;;5483785;26;20009;-59
2024/04/10 11:05:35;;;;;;;2.00;0.63;;;;;;;;;;5483371;26;20018;-59
2024/04/10 11:08:01;;;;;;;2.03;0.70;;;;;;;;;;5482711;26;19994;-60
2024/04/10 11:10:27;;;;;;;2.45;0.68;;;;;;;;;;5483733;26;20428;-58
2024/04/10 11:13:06;;;;;;;1.38;0.52;;;;;;;;;;5480351;26;20012;-60
2024/04/10 11:15:39;;;;;;;1.35;0.70;;;;;;;;;;5480556;26;19998;-51
2024/04/10 11:18:04;;;;;;;1.88;0.63;;;;;;;;;;5481371;26;19998;-57
2024/04/10 11:20:30;;;;;;;1.73;0.80;;;;;;;;;;5479985;26;20034;-51
2024/04/10 11:23:00;;;;;;;2.30;0.77;;;;;;;;;;5481419;26;19998;-51
2024/04/10 11:25:25;;;;;;;2.05;0.60;;;;;;;;;;5475147;26;20007;-54
2024/04/10 11:27:51;;;;;;;1.55;0.80;;;;;;;;;;5464413;26;20012;-56
2024/04/10 11:30:16;;;;;;;2.42;0.70;;;;;;;;;;5482615;26;20070;-56
2024/04/10 11:32:41;;;;;;;1.60;0.50;;;;;;;;;;5481406;26;20074;-55
2024/04/10 11:35:10;;;;;;;1.20;0.80;;;;;;;;;;5477813;26;19998;-53
2024/04/10 11:37:35;;;;;;;2.45;0.75;;;;;;;;;;5476535;26;20009;-52
2024/04/10 11:40:00;;;;;;;0.55;0.32;;;;;;;;;;5482303;26;19998;-54
2024/04/10 11:42:26;;;;;;;2.72;0.65;;;;;;;;;;5482820;26;20043;-52
2024/04/10 11:44:51;;;;;;;2.03;0.70;;;;;;;;;;5483196;26;20439;-54
2024/04/10 11:47:16;;;;;;;1.17;0.50;;;;;;;;;;5481330;26;20468;-54
2024/04/10 11:49:42;;;;;;;0.85;0.50;;;;;;;;;;5482853;26;20418;-51
2024/04/10 11:52:08;;;;;;;4.22;0.70;;;;;;;;;;5477123;26;20014;-54
2024/04/10 11:54:33;;;;;;;1.75;0.60;;;;;;;;;;5469478;26;20046;-58
2024/04/10 11:57:03;;;;;;;1.52;0.68;;;;;;;;;;5478583;26;20013;-61
2024/04/10 11:59:28;;;;;;;1.23;0.60;;;;;;;;;;5479889;26;19998;-60
2024/04/10 12:01:54;;;;;;;1.85;0.50;;;;;;;;;;5480158;26;19998;-60
2024/04/10 12:04:19;;;;;;;2.50;0.70;;;;;;;;;;5480900;26;20008;-62
2024/04/10 12:06:44;;;;;;;1.05;0.60;;;;;;;;;;5481945;26;19998;-61
2024/04/10 12:09:10;;;;;;;1.55;0.50;;;;;;;;;;5481489;26;19990;-62
2024/04/10 12:11:36;;;;;;;1.00;0.57;;;;;;;;;;5481284;26;19994;-59
2024/04/10 12:14:02;;;;;;;1.92;0.70;;;;;;;;;;5481857;26;20095;-59
2024/04/10 12:16:28;;;;;;;1.30;0.60;;;;;;;;;;5481676;26;19998;-59
2024/04/10 12:18:53;;;;;;;0.75;0.50;;;;;;;;;;5480519;26;19990;-61
2024/04/10 12:21:18;;;;;;;2.80;0.60;;;;;;;;;;5477816;26;19994;-59
2024/04/10 12:23:44;;;;;;;1.25;0.60;;;;;;;;;;5477771;26;20002;-59
2024/04/10 12:26:09;;;;;;;1.83;0.70;;;;;;;;;;5481602;26;19994;-61
2024/04/10 12:28:34;;;;;;;0.85;0.60;;;;;;;;;;5480404;26;19994;-62
2024/04/10 12:31:01;;;;;;;0.90;0.50;;;;;;;;;;5469481;26;19998;-60
2024/04/10 12:33:26;;;;;;;1.08;0.52;;;;;;;;;;5486254;26;20010;-62
2024/04/10 12:38:35;;;;;;;;;;;;;;;;;;5486393;26;20067;-61
2024/04/10 12:41:05;;;;;;;1.27;0.60;;;;;;;;;;5485919;26;19939;-61
2024/04/10 12:43:30;;;;;;;1.40;0.50;;;;;;;;;;5484932;26;19994;-52
2024/04/10 12:45:56;;;;;;;1.77;0.60;;;;;;;;;;5482185;26;20013;-51
2024/04/10 12:48:22;;;;;;;1.55;0.52;;;;;;;;;;5474182;26;19995;-50
2024/04/10 12:50:53;;;;;;;1.60;0.68;;;;;;;;;;5483921;26;20345;-50
2024/04/10 12:53:18;;;;;;;1.67;0.70;;;;;;;;;;5477052;26;20064;-51
2024/04/10 12:55:53;;;;;;;2.58;0.70;;;;;;;;;;5482335;26;20006;-50
2024/04/10 12:58:20;;;;;;;4.60;0.82;;;;;;;;;;5484920;26;20030;-53
2024/04/10 13:00:47;;;;;;;2.55;0.70;;;;;;;;;;5477322;26;20458;-61
2024/04/10 13:03:16;;;;;;;1.50;0.77;;;;;;;;;;5481686;26;20006;-60
2024/04/10 13:05:42;;;;;;;2.30;0.80;;;;;;;;;;5485668;26;20585;-56
2024/04/10 13:08:08;;;;;;;2.20;0.70;;;;;;;;;;5461501;26;19998;-61
2024/04/10 13:10:33;;;;;;;1.83;0.80;;;;;;;;;;5486184;26;20081;-58
2024/04/10 13:12:58;;;;;;;3.25;0.90;;;;;;;;;;5483120;26;19997;-60
2024/04/10 13:15:23;;;;;;;3.15;0.90;;;;;;;;;;5485477;26;20074;-60
2024/04/10 13:17:49;;;;;;;3.53;0.93;;;;;;;;;;5485821;26;20005;-49
2024/04/10 13:20:14;;;;;;;3.20;0.77;;;;;;;;;;5485855;26;19998;-54
2024/04/10 13:22:40;;;;;;;3.05;0.70;;;;;;;;;;5485024;26;20481;-49
2024/04/10 13:25:06;;;;;;;2.15;0.70;;;;;;;;;;5485941;26;20464;-55
2024/04/10 13:27:31;;;;;;;1.95;0.70;;;;;;;;;;5485640;26;20006;-52
2024/04/10 13:29:57;;;;;;;2.55;0.60;;;;;;;;;;5485767;26;20001;-50
2024/04/10 13:32:22;;;;;;;3.05;1.00;;;;;;;;;;5485227;26;20074;-56
2024/04/10 13:34:49;;;;;;;1.38;0.60;;;;;;;;;;5486126;26;20001;-52
2024/04/10 13:37:15;;;;;;;1.85;0.98;;;;;;;;;;5485339;26;20047;-54
2024/04/10 13:39:41;;;;;;;1.27;0.50;;;;;;;;;;5484944;26;20065;-51
2024/04/10 13:42:07;;;;;;;1.63;0.70;;;;;;;;;;5486109;26;20007;-51
2024/04/10 13:44:32;;;;;;;2.00;0.70;;;;;;;;;;5485511;26;20013;-55
2024/04/10 13:46:58;;;;;;;2.15;0.75;;;;;;;;;;5485054;26;20002;-52
2024/04/10 13:49:24;;;;;;;1.70;0.70;;;;;;;;;;5485474;26;19998;-49
2024/04/10 13:51:49;;;;;;;2.78;1.17;;;;;;;;;;5485815;26;19998;-53
2024/04/10 13:54:14;;;;;;;1.52;0.73;;;;;;;;;;5484631;26;20045;-53
2024/04/10 13:56:40;;;;;;;1.85;0.60;;;;;;;;;;5485399;26;20002;-49
2024/04/10 13:59:05;;;;;;;2.05;0.60;;;;;;;;;;5485459;26;20314;-49
2024/04/10 14:01:30;;;;;;;1.60;0.70;;;;;;;;;;5485126;26;20596;-55
2024/04/10 14:03:56;;;;;;;1.73;0.70;;;;;;;;;;5485004;26;20016;-49
2024/04/10 14:06:23;;;;;;;3.38;0.80;;;;;;;;;;5485324;26;20049;-54
2024/04/10 14:08:48;;;;;;;1.35;0.60;;;;;;;;;;5485139;26;20002;-52
2024/04/10 14:11:14;;;;;;;1.35;0.63;;;;;;;;;;5484312;26;20311;-49
2024/04/10 14:13:41;;;;;;;1.42;0.60;;;;;;;;;;5478025;26;19994;-59
2024/04/10 14:16:07;;;;;;;1.45;0.60;;;;;;;;;;5482787;26;20024;-62
2024/04/10 14:18:33;;;;;;;1.95;0.65;;;;;;;;;;5483254;26;19998;-59
2024/04/10 14:21:05;;;;;;;1.17;0.60;;;;;;;;;;5484437;26;20438;-62
2024/04/10 14:23:31;;;;;;;1.02;0.60;;;;;;;;;;5484553;26;20040;-62
2024/04/10 14:25:58;;;;;;;1.77;0.60;;;;;;;;;;5482975;26;20039;-52
2024/04/10 14:28:25;;;;;;;1.25;0.68;;;;;;;;;;5482316;26;20333;-55
2024/04/10 14:31:09;;;;;;;4.00;0.60;;;;;;;;;;5484502;26;19997;-51
2024/04/10 14:33:36;;;;;;;1.58;0.68;;;;;;;;;;5478343;26;20003;-50
2024/04/10 14:36:02;;;;;;;1.77;0.40;;;;;;;;;;5475820;26;19998;-50
2024/04/10 14:38:28;;;;;;;1.75;0.40;;;;;;;;;;5470213;26;20418;-52
2024/04/10 14:40:57;;;;;;;2.58;0.70;;;;;;;;;;5476116;26;20478;-51
2024/04/10 14:43:23;;;;;;;1.52;0.40;;;;;;;;;;5461038;26;20006;-58